Weather observations for the past three days for
St. Louis, Spirit Of St. Louis Airport
Imperial (Metric)
Date Time (cdt) Wind (mph) Vis. (mi.) Weather Sky Cond. Temperature (ºF) Relative Humidity Wind Chill (°F) Heat Index (°F) Pressure Precipitation (in)
Air Dwpt 6 hour altimeter (in) sea level (mb) 1 hr 3 hr 6 hr
Max. Min.
02 23:54 S 5 10.00 Fair CLR 86 70 59% 91 29.95 1013.0
02 22:54 Calm 10.00 Fair CLR 86 70 59% 91 29.95 1013.1
02 21:54 S 5 10.00 Fair CLR 87.1 70 57% 92 29.95 1013.1
02 20:54 SW 5 10.00 Fair CLR 84 72 67% 90 29.94 1012.8
02 19:54 Calm 10.00 Fair CLR 82 73.9 77% 88 29.92 1012.3
02 18:54 Calm 9.00 Fair CLR 88 75.9 99 88 68% 99 29.92 1012.2
02 17:54 W 3 10.00 Fair CLR 97 66.9 37% 101 29.92 1012.1
02 16:54 SW 8 10.00 A Few Clouds FEW075 98.1 66 35% 102 29.92 1012.2
02 15:54 S 6 10.00 A Few Clouds FEW070 98.1 69.1 39% 104 29.94 1012.7
02 14:54 W 9 10.00 A Few Clouds FEW065 99 70 39% 106 29.96 1013.4
02 13:54 Vrbl 6 10.00 A Few Clouds FEW040 97 69.1 40% 103 29.98 1014.0
02 12:54 SW 7 10.00 Fair CLR 95 72 96.1 75 47% 103 30 1014.6
02 11:54 W 9 10.00 Fair CLR 95 72 47% 103 30.02 1015.3
02 10:54 W 9 10.00 Fair CLR 93 72 50% 101 30.03 1015.8
02 09:54 W 8 10.00 Fair CLR 89.1 71.1 55% 95 30.02 1015.7
02 08:54 SW 7 10.00 Fair CLR 86 71.1 61% 92 30.03 1015.8
02 07:54 W 5 10.00 Fair CLR 80.1 71.1 74% 84 30.03 1016.1
02 06:54 Calm 10.00 Fair CLR 75 69.1 82.9 73 82% 75 30.02 1015.5
02 05:54 W 3 10.00 Fair CLR 73.9 70 88% 30.01 1015.2
02 04:54 Calm 10.00 Fair CLR 75 70 84% 75 30 1014.7
02 03:54 SW 3 10.00 Fair CLR 75 71.1 88% 75 29.99 1014.5
02 02:54 SW 6 10.00 Fair CLR 80.1 70 71% 83 29.99 1014.2
02 01:54 Calm 10.00 Fair CLR 82 70 67% 86 29.99 1014.4
02 00:54 SW 5 10.00 Fair CLR 82.9 70 88 75.9 65% 87 29.99 1014.4
01 23:54 S 5 10.00 Fair CLR 84 70 63% 88 29.99 1014.4
01 22:54 Calm 10.00 Fair CLR 77 73 88% 78 29.98 1014.3
01 21:54 Calm 10.00 Fair CLR 77 73 88% 78 29.98 1014.3
01 20:54 Calm 10.00 Fair CLR 79 75 88% 83 29.97 1013.8
01 19:54 Calm 10.00 Fair CLR 82 75.9 82% 89 29.95 1013.4
01 18:54 Calm 10.00 Fair CLR 88 75.9 99 88 68% 99 29.95 1013.3
01 17:54 W 5 10.00 Fair CLR 96.1 70 43% 103 29.96 1013.3
01 16:54 W 7 10.00 Fair CLR 98.1 66.9 36% 103 29.96 1013.3
01 15:54 S 3 10.00 A Few Clouds FEW080 99 66.9 35% 104 29.97 1013.7
01 14:54 SW 7 10.00 Fair CLR 98.1 66.9 36% 103 29.99 1014.4
01 13:54 S 3 10.00 Fair CLR 96.1 71.1 44% 104 30.01 1015.1
01 12:54 W 5 10.00 Fair CLR 95 69.1 95 72 43% 101 30.02 1015.6
01 11:54 W 6 10.00 Fair CLR 91.9 71.1 51% 99 30.04 1016.1
01 10:54 W 7 10.00 Fair CLR 90 71.1 54% 96 30.05 1016.5
01 09:54 W 8 10.00 Fair CLR 87.1 71.1 59% 93 30.05 1016.4
01 08:54 SW 6 10.00 Fair CLR 82.9 70 65% 87 30.05 1016.6
01 07:54 Calm 10.00 Fair CLR 78.1 69.1 74% 80 30.05 1016.6
01 06:54 Calm 10.00 Fair CLR 72 66.9 79 71.1 84% 30.03 1016.0
01 05:54 Calm 10.00 Fair CLR 73.9 66.9 79% 30.02 1015.5
01 04:54 W 3 10.00 Fair CLR 75.9 66.9 74% 77 30.01 1015.1
01 03:54 Calm 10.00 Fair CLR 71.1 69.1 94% 30 1015.0
01 02:54 Calm 10.00 Fair CLR 72 69.1 91% 30 1014.7
01 01:54 Calm 10.00 Fair CLR 72 69.1 91% 29.99 1014.6
01 00:54 W 3 10.00 Fair CLR 79 69.1 87.1 79 72% 82 29.99 1014.5
31 22:54 S 7 10.00 Fair CLR 84 68 59% 87 29.99 1014.5
31 21:54 S 7 10.00 Fair CLR 84.9 69.1 59% 89 29.98 1014.2
31 20:54 S 8 10.00 Fair CLR 84.9 70 61% 89 29.97 1013.9
31 19:54 S 6 10.00 Fair CLR 86 71.1 61% 92 29.96 1013.5
31 18:54 Calm 10.00 Fair CLR 87.1 75.9 97 87.1 70% 98 29.95 1013.5
31 17:54 S 7 10.00 Fair CLR 95 70 44% 101 29.95 1013.4
31 16:54 S 8 10.00 Fair CLR 96.1 70 43% 103 29.96 1013.5
31 15:54 Vrbl 6 10.00 Fair CLR 97 70 42% 104 29.96 1013.5
31 14:54 SW 10 10.00 Fair CLR 96.1 69.1 41% 102 29.97 1013.9
31 13:54 W 9 10.00 Fair CLR 95 68 41% 100 29.99 1014.5
31 12:54 W 9 10.00 Fair CLR 93 69.1 93 64.9 46% 98 30.01 1015.1
31 11:54 SW 8 10.00 Fair CLR 90 68 48% 94 30.03 1016.0
31 10:54 W 10 10.00 Fair CLR 88 66.9 50% 91 30.04 1016.1
31 09:54 SW 10 10.00 Fair CLR 84 64.9 53% 86 30.03 1015.9
31 08:54 SW 9 10.00 Fair CLR 81 63 54% 82 30.02 1015.8
31 07:54 Calm 10.00 Fair CLR 72 64.9 79% 30.02 1015.7
31 06:54 Calm 10.00 Fair CLR 64.9 63 78.1 64 93% 30 1015.1
31 05:54 Calm 10.00 Fair CLR 64.9 63 93% 30 1014.9
31 04:54 Calm 10.00 Fair CLR 66 63 90% 29.99 1014.6
31 03:54 Calm 10.00 Fair CLR 66 63 90% 29.99 1014.5
31 02:54 Calm 10.00 Fair CLR 68 63 84% 29.97 1014.1
31 01:54 Calm 10.00 Fair CLR 70 63 79% 29.98 1014.3
31 00:54 SW 5 10.00 Fair CLR 78.1 60.1 88 72 54% 79 29.99 1014.4
Date Time (cdt) Wind (mph) Vis. (mi.) Weather Sky Cond. Air Dwpt Max. Min. Relative Humidity Wind Chill (°F) Heat Index (°F) altimeter (in) sea level (mb) 1 hr 3 hr 6 hr
6 hour
Temperature (ºF) Pressure Precipitation (in)